Terminal Aerodrome Forecast
Issued by NWS

Home | Current Version | Previous Version | Text Only | Print | Product List | Glossary On
Versions: 1 2 3 4 5 6 7 8 9 10 11 12 13 14 15 16 17 18
000
FTUS43 KICT 262335
TAFRSL
TAF
KRSL 262335Z 2700/2724 03010KT P6SM BKN200
     FM270800 09008KT P6SM OVC080
     FM271600 12009KT P6SM OVC040=

USA.gov is the U.S. government's official web portal to all federal, state and local government web resources and services.